sensor_id;sensor_type;location;lat;lon;timestamp;pressure;altitude;pressure_sealevel;temperature
51561;BMP280;37654;51.262;17.058;2023-06-22T10:41:53;99726.69;;;45.02
51561;BMP280;37654;51.262;17.058;2023-06-22T10:44:18;99720.16;;;44.38
51561;BMP280;37654;51.262;17.058;2023-06-22T10:46:44;99727.13;;;43.74
51561;BMP280;37654;51.262;17.058;2023-06-22T10:49:09;99728.56;;;43.04
51561;BMP280;37654;51.262;17.058;2023-06-22T10:51:35;99726.69;;;41.90
51561;BMP280;37654;51.262;17.058;2023-06-22T10:54:00;99719.16;;;42.03
51561;BMP280;37654;51.262;17.058;2023-06-22T10:56:26;99721.56;;;40.28
51561;BMP280;37654;51.262;17.058;2023-06-22T10:58:51;99716.59;;;40.73
51561;BMP280;37654;51.262;17.058;2023-06-22T11:01:17;99715.66;;;40.37
51561;BMP280;37654;51.262;17.058;2023-06-22T11:03:42;99704.41;;;39.67
51561;BMP280;37654;51.262;17.058;2023-06-22T11:06:08;99720.75;;;40.21
51561;BMP280;37654;51.262;17.058;2023-06-22T11:08:33;99702.63;;;38.73
51561;BMP280;37654;51.262;17.058;2023-06-22T11:10:59;99713.66;;;39.90
51561;BMP280;37654;51.262;17.058;2023-06-22T11:13:24;99715.50;;;38.84
51561;BMP280;37654;51.262;17.058;2023-06-22T11:15:50;99705.25;;;39.18
51561;BMP280;37654;51.262;17.058;2023-06-22T11:18:16;99713.06;;;39.38
51561;BMP280;37654;51.262;17.058;2023-06-22T11:20:42;99720.31;;;39.57
51561;BMP280;37654;51.262;17.058;2023-06-22T11:23:09;99715.19;;;40.10
51561;BMP280;37654;51.262;17.058;2023-06-22T11:25:39;99722.72;;;40.38
51561;BMP280;37654;51.262;17.058;2023-06-22T11:28:05;99713.28;;;40.41
51561;BMP280;37654;51.262;17.058;2023-06-22T11:30:30;99707.59;;;40.49
51561;BMP280;37654;51.262;17.058;2023-06-22T11:32:59;99709.47;;;39.57
51561;BMP280;37654;51.262;17.058;2023-06-22T11:35:25;99697.53;;;39.15
51561;BMP280;37654;51.262;17.058;2023-06-22T11:37:51;99700.91;;;36.96
51561;BMP280;37654;51.262;17.058;2023-06-22T11:40:16;99692.94;;;35.52
51561;BMP280;37654;51.262;17.058;2023-06-22T11:42:43;99710.28;;;37.34
51561;BMP280;37654;51.262;17.058;2023-06-22T11:45:09;99698.25;;;37.43
51561;BMP280;37654;51.262;17.058;2023-06-22T11:47:35;99702.78;;;36.96
51561;BMP280;37654;51.262;17.058;2023-06-22T11:50:02;99703.34;;;37.19
51561;BMP280;37654;51.262;17.058;2023-06-22T11:52:28;99693.44;;;38.04
51561;BMP280;37654;51.262;17.058;2023-06-22T11:54:53;99696.78;;;38.57
51561;BMP280;37654;51.262;17.058;2023-06-22T11:57:19;99697.75;;;36.87
51561;BMP280;37654;51.262;17.058;2023-06-22T11:59:44;99687.31;;;36.50
51561;BMP280;37654;51.262;17.058;2023-06-22T12:02:10;99693.97;;;37.21
51561;BMP280;37654;51.262;17.058;2023-06-22T12:04:35;99700.81;;;36.84
51561;BMP280;37654;51.262;17.058;2023-06-22T12:07:01;99697.53;;;37.74
51561;BMP280;37654;51.262;17.058;2023-06-22T12:09:27;99692.09;;;36.48
51561;BMP280;37654;51.262;17.058;2023-06-22T12:11:53;99694.63;;;36.36
51561;BMP280;37654;51.262;17.058;2023-06-22T12:14:18;99689.38;;;34.74
51561;BMP280;37654;51.262;17.058;2023-06-22T12:16:44;99683.59;;;34.48
51561;BMP280;37654;51.262;17.058;2023-06-22T12:19:10;99678.69;;;35.72
51561;BMP280;37654;51.262;17.058;2023-06-22T12:21:37;99680.16;;;35.54
51561;BMP280;37654;51.262;17.058;2023-06-22T12:24:03;99674.66;;;36.24
51561;BMP280;37654;51.262;17.058;2023-06-22T12:26:28;99672.72;;;34.93
51561;BMP280;37654;51.262;17.058;2023-06-22T12:28:54;99666.84;;;35.18
51561;BMP280;37654;51.262;17.058;2023-06-22T12:31:19;99682.47;;;35.78
51561;BMP280;37654;51.262;17.058;2023-06-22T12:33:45;99677.19;;;35.90
51561;BMP280;37654;51.262;17.058;2023-06-22T12:36:11;99664.09;;;34.69
51561;BMP280;37654;51.262;17.058;2023-06-22T12:38:36;99659.34;;;34.99
51561;BMP280;37654;51.262;17.058;2023-06-22T12:41:02;99661.25;;;33.97
51561;BMP280;37654;51.262;17.058;2023-06-22T12:43:27;99656.75;;;34.63
51561;BMP280;37654;51.262;17.058;2023-06-22T12:45:53;99659.06;;;34.94
51561;BMP280;37654;51.262;17.058;2023-06-22T12:48:18;99656.72;;;34.34
51561;BMP280;37654;51.262;17.058;2023-06-22T12:50:44;99642.22;;;34.21
51561;BMP280;37654;51.262;17.058;2023-06-22T12:53:10;99652.75;;;34.59
51561;BMP280;37654;51.262;17.058;2023-06-22T12:55:35;99648.53;;;33.47
51561;BMP280;37654;51.262;17.058;2023-06-22T12:58:01;99640.06;;;33.80
51561;BMP280;37654;51.262;17.058;2023-06-22T13:00:26;99637.19;;;34.04
51561;BMP280;37654;51.262;17.058;2023-06-22T13:02:52;99641.38;;;33.84
51561;BMP280;37654;51.262;17.058;2023-06-22T13:05:18;99645.47;;;34.67
51561;BMP280;37654;51.262;17.058;2023-06-22T13:07:44;99661.34;;;33.82
51561;BMP280;37654;51.262;17.058;2023-06-22T13:10:11;99653.75;;;33.41
51561;BMP280;37654;51.262;17.058;2023-06-22T13:12:36;99640.09;;;32.29
51561;BMP280;37654;51.262;17.058;2023-06-22T13:15:02;99645.44;;;32.45
51561;BMP280;37654;51.262;17.058;2023-06-22T13:17:28;99650.06;;;33.12
51561;BMP280;37654;51.262;17.058;2023-06-22T13:19:54;99646.84;;;33.16
51561;BMP280;37654;51.262;17.058;2023-06-22T13:22:30;99647.56;;;32.57
51561;BMP280;37654;51.262;17.058;2023-06-22T13:24:57;99637.59;;;32.89
51561;BMP280;37654;51.262;17.058;2023-06-22T13:27:23;99639.63;;;32.87
51561;BMP280;37654;51.262;17.058;2023-06-22T13:29:49;99646.25;;;32.99
51561;BMP280;37654;51.262;17.058;2023-06-22T13:32:14;99635.06;;;33.25
51561;BMP280;37654;51.262;17.058;2023-06-22T13:34:40;99629.03;;;32.08
51561;BMP280;37654;51.262;17.058;2023-06-22T13:37:06;99625.06;;;32.20
51561;BMP280;37654;51.262;17.058;2023-06-22T13:39:31;99626.69;;;32.29
51561;BMP280;37654;51.262;17.058;2023-06-22T13:41:57;99627.25;;;31.85
51561;BMP280;37654;51.262;17.058;2023-06-22T13:44:23;99622.22;;;32.06
51561;BMP280;37654;51.262;17.058;2023-06-22T13:46:52;99626.75;;;32.75
51561;BMP280;37654;51.262;17.058;2023-06-22T13:49:18;99626.38;;;32.32
51561;BMP280;37654;51.262;17.058;2023-06-22T13:51:43;99623.56;;;32.02
51561;BMP280;37654;51.262;17.058;2023-06-22T13:54:09;99620.28;;;32.53
51561;BMP280;37654;51.262;17.058;2023-06-22T13:56:35;99628.72;;;32.27
51561;BMP280;37654;51.262;17.058;2023-06-22T13:59:01;99633.03;;;32.44
51561;BMP280;37654;51.262;17.058;2023-06-22T14:01:26;99631.63;;;32.63
51561;BMP280;37654;51.262;17.058;2023-06-22T14:03:52;99617.59;;;32.53
51561;BMP280;37654;51.262;17.058;2023-06-22T14:06:17;99623.63;;;33.01
51561;BMP280;37654;51.262;17.058;2023-06-22T14:08:43;99616.91;;;32.59
51561;BMP280;37654;51.262;17.058;2023-06-22T14:11:09;99633.47;;;33.08
51561;BMP280;37654;51.262;17.058;2023-06-22T14:13:35;99625.69;;;32.38
51561;BMP280;37654;51.262;17.058;2023-06-22T14:16:01;99613.88;;;32.62
51561;BMP280;37654;51.262;17.058;2023-06-22T14:18:26;99618.91;;;32.73
51561;BMP280;37654;51.262;17.058;2023-06-22T14:20:52;99607.66;;;33.07
51561;BMP280;37654;51.262;17.058;2023-06-22T14:23:18;99619.03;;;33.09
51561;BMP280;37654;51.262;17.058;2023-06-22T14:25:43;99607.78;;;32.84
51561;BMP280;37654;51.262;17.058;2023-06-22T14:28:09;99617.00;;;33.19
51561;BMP280;37654;51.262;17.058;2023-06-22T14:30:34;99601.00;;;33.33
51561;BMP280;37654;51.262;17.058;2023-06-22T14:33:00;99592.72;;;33.13
51561;BMP280;37654;51.262;17.058;2023-06-22T14:35:25;99590.72;;;33.59
51561;BMP280;37654;51.262;17.058;2023-06-22T14:37:51;99589.34;;;33.63
51561;BMP280;37654;51.262;17.058;2023-06-22T14:40:16;99599.91;;;33.64
51561;BMP280;37654;51.262;17.058;2023-06-22T14:42:42;99600.91;;;33.63
51561;BMP280;37654;51.262;17.058;2023-06-22T14:45:08;99597.41;;;33.41
51561;BMP280;37654;51.262;17.058;2023-06-22T14:47:33;99593.72;;;33.42
51561;BMP280;37654;51.262;17.058;2023-06-22T14:49:59;99587.06;;;33.00
51561;BMP280;37654;51.262;17.058;2023-06-22T14:52:26;99589.59;;;33.02
51561;BMP280;37654;51.262;17.058;2023-06-22T14:54:52;99583.91;;;32.97
51561;BMP280;37654;51.262;17.058;2023-06-22T14:57:19;99583.22;;;33.55
51561;BMP280;37654;51.262;17.058;2023-06-22T14:59:46;99584.53;;;33.59
51561;BMP280;37654;51.262;17.058;2023-06-22T15:02:13;99586.44;;;33.72
51561;BMP280;37654;51.262;17.058;2023-06-22T15:04:39;99579.75;;;34.05
51561;BMP280;37654;51.262;17.058;2023-06-22T15:07:05;99572.75;;;33.60
51561;BMP280;37654;51.262;17.058;2023-06-22T15:09:30;99578.13;;;32.85
51561;BMP280;37654;51.262;17.058;2023-06-22T15:11:56;99582.34;;;32.80
51561;BMP280;37654;51.262;17.058;2023-06-22T15:14:23;99571.03;;;32.54
51561;BMP280;37654;51.262;17.058;2023-06-22T15:16:49;99568.81;;;32.12
51561;BMP280;37654;51.262;17.058;2023-06-22T15:19:15;99566.00;;;31.43
51561;BMP280;37654;51.262;17.058;2023-06-22T15:21:40;99564.16;;;31.28
51561;BMP280;37654;51.262;17.058;2023-06-22T15:24:06;99561.72;;;31.01
51561;BMP280;37654;51.262;17.058;2023-06-22T15:26:32;99551.78;;;31.35
51561;BMP280;37654;51.262;17.058;2023-06-22T15:28:57;99555.47;;;31.41
51561;BMP280;37654;51.262;17.058;2023-06-22T15:31:23;99552.13;;;31.32
51561;BMP280;37654;51.262;17.058;2023-06-22T15:33:49;99559.81;;;31.50
51561;BMP280;37654;51.262;17.058;2023-06-22T15:36:14;99560.47;;;31.37
51561;BMP280;37654;51.262;17.058;2023-06-22T15:38:40;99553.91;;;31.15
51561;BMP280;37654;51.262;17.058;2023-06-22T15:41:06;99556.06;;;31.04
51561;BMP280;37654;51.262;17.058;2023-06-22T15:43:31;99552.06;;;31.16
51561;BMP280;37654;51.262;17.058;2023-06-22T15:45:57;99549.81;;;30.80
51561;BMP280;37654;51.262;17.058;2023-06-22T15:48:22;99536.75;;;30.69
51561;BMP280;37654;51.262;17.058;2023-06-22T15:50:48;99525.75;;;30.80
51561;BMP280;37654;51.262;17.058;2023-06-22T15:53:14;99529.97;;;30.90
51561;BMP280;37654;51.262;17.058;2023-06-22T15:55:39;99531.75;;;30.66
51561;BMP280;37654;51.262;17.058;2023-06-22T15:58:06;99524.44;;;30.35
51561;BMP280;37654;51.262;17.058;2023-06-22T16:00:32;99526.25;;;30.10
51561;BMP280;37654;51.262;17.058;2023-06-22T16:02:57;99520.69;;;30.21
51561;BMP280;37654;51.262;17.058;2023-06-22T16:05:23;99523.00;;;29.91
51561;BMP280;37654;51.262;17.058;2023-06-22T16:07:48;99519.03;;;29.70
51561;BMP280;37654;51.262;17.058;2023-06-22T16:10:14;99509.81;;;29.89
51561;BMP280;37654;51.262;17.058;2023-06-22T16:12:42;99505.56;;;30.04
51561;BMP280;37654;51.262;17.058;2023-06-22T16:15:11;99508.91;;;30.06
51561;BMP280;37654;51.262;17.058;2023-06-22T16:17:37;99500.34;;;30.27
51561;BMP280;37654;51.262;17.058;2023-06-22T16:20:09;99495.97;;;30.11
51561;BMP280;37654;51.262;17.058;2023-06-22T16:22:35;99498.34;;;30.22
51561;BMP280;37654;51.262;17.058;2023-06-22T16:25:01;99489.56;;;30.04
51561;BMP280;37654;51.262;17.058;2023-06-22T16:27:28;99494.84;;;30.21
51561;BMP280;37654;51.262;17.058;2023-06-22T16:29:54;99500.63;;;30.17
51561;BMP280;37654;51.262;17.058;2023-06-22T16:32:20;99487.78;;;29.87
51561;BMP280;37654;51.262;17.058;2023-06-22T16:34:46;99489.31;;;29.65
51561;BMP280;37654;51.262;17.058;2023-06-22T16:37:12;99486.59;;;29.57
51561;BMP280;37654;51.262;17.058;2023-06-22T16:39:38;99491.59;;;29.60
51561;BMP280;37654;51.262;17.058;2023-06-22T16:42:04;99491.72;;;29.75
51561;BMP280;37654;51.262;17.058;2023-06-22T16:44:30;99483.31;;;29.63
51561;BMP280;37654;51.262;17.058;2023-06-22T16:46:58;99478.44;;;29.58
51561;BMP280;37654;51.262;17.058;2023-06-22T16:49:23;99485.31;;;29.61
51561;BMP280;37654;51.262;17.058;2023-06-22T16:51:49;99490.63;;;29.61
51561;BMP280;37654;51.262;17.058;2023-06-22T16:54:15;99499.34;;;29.71
51561;BMP280;37654;51.262;17.058;2023-06-22T16:56:42;99491.03;;;29.73
51561;BMP280;37654;51.262;17.058;2023-06-22T16:59:09;99481.84;;;29.68
51561;BMP280;37654;51.262;17.058;2023-06-22T17:01:34;99487.00;;;29.70
51561;BMP280;37654;51.262;17.058;2023-06-22T17:04:09;99481.09;;;29.58
51561;BMP280;37654;51.262;17.058;2023-06-22T17:06:42;99479.91;;;29.36
51561;BMP280;37654;51.262;17.058;2023-06-22T17:09:11;99464.19;;;29.08
51561;BMP280;37654;51.262;17.058;2023-06-22T17:11:37;99462.81;;;29.04
51561;BMP280;37654;51.262;17.058;2023-06-22T17:14:02;99455.81;;;29.03
51561;BMP280;37654;51.262;17.058;2023-06-22T17:16:31;99450.09;;;28.98
51561;BMP280;37654;51.262;17.058;2023-06-22T17:18:59;99441.88;;;28.91
51561;BMP280;37654;51.262;17.058;2023-06-22T17:21:31;99433.16;;;28.89
51561;BMP280;37654;51.262;17.058;2023-06-22T17:24:00;99449.25;;;28.80
51561;BMP280;37654;51.262;17.058;2023-06-22T17:26:25;99440.19;;;28.56
51561;BMP280;37654;51.262;17.058;2023-06-22T17:28:53;99450.31;;;28.53
51561;BMP280;37654;51.262;17.058;2023-06-22T17:31:19;99452.03;;;28.44
51561;BMP280;37654;51.262;17.058;2023-06-22T17:33:48;99438.16;;;28.41
51561;BMP280;37654;51.262;17.058;2023-06-22T17:36:15;99451.78;;;28.38
51561;BMP280;37654;51.262;17.058;2023-06-22T17:38:40;99450.00;;;28.29
51561;BMP280;37654;51.262;17.058;2023-06-22T17:41:06;99444.38;;;28.32
51561;BMP280;37654;51.262;17.058;2023-06-22T17:43:32;99448.78;;;28.24
51561;BMP280;37654;51.262;17.058;2023-06-22T17:45:58;99446.84;;;27.90
51561;BMP280;37654;51.262;17.058;2023-06-22T17:48:25;99439.66;;;28.00
51561;BMP280;37654;51.262;17.058;2023-06-22T17:50:51;99450.03;;;28.03
51561;BMP280;37654;51.262;17.058;2023-06-22T17:53:17;99447.66;;;28.00
51561;BMP280;37654;51.262;17.058;2023-06-22T17:55:43;99427.28;;;27.91
51561;BMP280;37654;51.262;17.058;2023-06-22T17:58:08;99423.41;;;27.67
51561;BMP280;37654;51.262;17.058;2023-06-22T18:00:35;99406.91;;;27.63
51561;BMP280;37654;51.262;17.058;2023-06-22T18:03:02;99402.16;;;27.67
51561;BMP280;37654;51.262;17.058;2023-06-22T18:05:32;99403.72;;;27.60
51561;BMP280;37654;51.262;17.058;2023-06-22T18:07:59;99407.66;;;27.47
51561;BMP280;37654;51.262;17.058;2023-06-22T18:10:31;99416.94;;;27.24
51561;BMP280;37654;51.262;17.058;2023-06-22T18:12:58;99395.53;;;27.25
51561;BMP280;37654;51.262;17.058;2023-06-22T18:15:25;99402.41;;;27.19
51561;BMP280;37654;51.262;17.058;2023-06-22T18:17:51;99405.25;;;26.98
51561;BMP280;37654;51.262;17.058;2023-06-22T18:20:18;99399.78;;;27.00
51561;BMP280;37654;51.262;17.058;2023-06-22T18:22:48;99407.09;;;26.89
51561;BMP280;37654;51.262;17.058;2023-06-22T18:25:14;99403.28;;;26.91
51561;BMP280;37654;51.262;17.058;2023-06-22T18:27:46;99399.09;;;26.79
51561;BMP280;37654;51.262;17.058;2023-06-22T18:30:13;99392.25;;;26.67
51561;BMP280;37654;51.262;17.058;2023-06-22T18:32:41;99391.25;;;26.59
51561;BMP280;37654;51.262;17.058;2023-06-22T18:35:08;99386.78;;;26.50
51561;BMP280;37654;51.262;17.058;2023-06-22T18:37:36;99384.53;;;26.37
51561;BMP280;37654;51.262;17.058;2023-06-22T18:40:04;99392.38;;;26.29
51561;BMP280;37654;51.262;17.058;2023-06-22T18:42:32;99383.41;;;26.11
51561;BMP280;37654;51.262;17.058;2023-06-22T18:44:57;99363.78;;;26.03
51561;BMP280;37654;51.262;17.058;2023-06-22T18:47:30;99373.16;;;25.97
51561;BMP280;37654;51.262;17.058;2023-06-22T18:50:07;99372.72;;;25.92
51561;BMP280;37654;51.262;17.058;2023-06-22T18:52:34;99374.78;;;25.80
51561;BMP280;37654;51.262;17.058;2023-06-22T18:55:04;99377.53;;;25.69
51561;BMP280;37654;51.262;17.058;2023-06-22T18:57:31;99364.53;;;25.66
51561;BMP280;37654;51.262;17.058;2023-06-22T19:10:27;99383.53;;;25.12
51561;BMP280;37654;51.262;17.058;2023-06-22T19:12:55;99386.00;;;25.04
51561;BMP280;37654;51.262;17.058;2023-06-22T19:15:21;99386.94;;;25.03
51561;BMP280;37654;51.262;17.058;2023-06-22T19:17:59;99384.25;;;24.94
51561;BMP280;37654;51.262;17.058;2023-06-22T19:20:32;99379.47;;;24.88
51561;BMP280;37654;51.262;17.058;2023-06-22T19:22:58;99369.38;;;24.82
51561;BMP280;37654;51.262;17.058;2023-06-22T19:25:29;99375.88;;;24.78
51561;BMP280;37654;51.262;17.058;2023-06-22T19:28:01;99373.47;;;24.75
51561;BMP280;37654;51.262;17.058;2023-06-22T19:30:28;99359.47;;;24.64
51561;BMP280;37654;51.262;17.058;2023-06-22T19:32:56;99355.41;;;24.60
51561;BMP280;37654;51.262;17.058;2023-06-22T19:35:22;99347.91;;;24.44
51561;BMP280;37654;51.262;17.058;2023-06-22T19:37:48;99355.09;;;24.43
51561;BMP280;37654;51.262;17.058;2023-06-22T19:40:16;99360.06;;;24.36
51561;BMP280;37654;51.262;17.058;2023-06-22T19:42:44;99371.41;;;24.27
51561;BMP280;37654;51.262;17.058;2023-06-22T19:45:14;99358.06;;;24.29
51561;BMP280;37654;51.262;17.058;2023-06-22T19:47:42;99354.03;;;24.14
51561;BMP280;37654;51.262;17.058;2023-06-22T19:50:09;99351.28;;;24.16
51561;BMP280;37654;51.262;17.058;2023-06-22T19:52:36;99344.78;;;24.09
51561;BMP280;37654;51.262;17.058;2023-06-22T19:55:03;99343.06;;;24.08
51561;BMP280;37654;51.262;17.058;2023-06-22T19:57:37;99337.56;;;24.00
51561;BMP280;37654;51.262;17.058;2023-06-22T20:00:06;99331.31;;;24.01
51561;BMP280;37654;51.262;17.058;2023-06-22T20:02:37;99333.00;;;24.02
51561;BMP280;37654;51.262;17.058;2023-06-22T20:05:06;99334.94;;;24.00
51561;BMP280;37654;51.262;17.058;2023-06-22T20:07:39;99337.72;;;23.98
51561;BMP280;37654;51.262;17.058;2023-06-22T20:10:14;99333.88;;;23.91
51561;BMP280;37654;51.262;17.058;2023-06-22T20:12:40;99338.19;;;23.92
51561;BMP280;37654;51.262;17.058;2023-06-22T20:15:21;99365.25;;;23.85
51561;BMP280;37654;51.262;17.058;2023-06-22T20:18:02;99354.81;;;23.84
51561;BMP280;37654;51.262;17.058;2023-06-22T20:20:31;99366.72;;;23.78
51561;BMP280;37654;51.262;17.058;2023-06-22T20:23:01;99375.25;;;23.82
51561;BMP280;37654;51.262;17.058;2023-06-22T20:25:29;99370.31;;;23.77
51561;BMP280;37654;51.262;17.058;2023-06-22T20:27:55;99372.25;;;23.75
51561;BMP280;37654;51.262;17.058;2023-06-22T20:30:21;99368.91;;;23.73
51561;BMP280;37654;51.262;17.058;2023-06-22T20:32:52;99358.56;;;23.70
51561;BMP280;37654;51.262;17.058;2023-06-22T20:35:20;99362.66;;;23.63
51561;BMP280;37654;51.262;17.058;2023-06-22T20:37:47;99365.44;;;23.62
51561;BMP280;37654;51.262;17.058;2023-06-22T20:40:13;99369.00;;;23.61
51561;BMP280;37654;51.262;17.058;2023-06-22T20:42:39;99366.59;;;23.58
51561;BMP280;37654;51.262;17.058;2023-06-22T20:45:05;99374.91;;;23.54
51561;BMP280;37654;51.262;17.058;2023-06-22T20:47:31;99375.75;;;23.54
51561;BMP280;37654;51.262;17.058;2023-06-22T20:49:57;99372.28;;;23.54
51561;BMP280;37654;51.262;17.058;2023-06-22T20:52:27;99369.88;;;23.51
51561;BMP280;37654;51.262;17.058;2023-06-22T20:54:54;99359.88;;;23.54
51561;BMP280;37654;51.262;17.058;2023-06-22T20:57:20;99360.25;;;23.50
51561;BMP280;37654;51.262;17.058;2023-06-22T20:59:46;99362.41;;;23.45
51561;BMP280;37654;51.262;17.058;2023-06-22T21:02:12;99358.81;;;23.46
51561;BMP280;37654;51.262;17.058;2023-06-22T21:04:38;99347.06;;;23.50
51561;BMP280;37654;51.262;17.058;2023-06-22T21:07:06;99338.53;;;23.46
51561;BMP280;37654;51.262;17.058;2023-06-22T21:09:31;99338.13;;;23.40
51561;BMP280;37654;51.262;17.058;2023-06-22T21:11:58;99316.91;;;23.41
51561;BMP280;37654;51.262;17.058;2023-06-22T21:14:24;99322.66;;;23.35
51561;BMP280;37654;51.262;17.058;2023-06-22T21:16:49;99316.53;;;23.35
51561;BMP280;37654;51.262;17.058;2023-06-22T21:19:15;99316.03;;;23.30
51561;BMP280;37654;51.262;17.058;2023-06-22T21:21:41;99323.84;;;23.32
51561;BMP280;37654;51.262;17.058;2023-06-22T21:24:07;99316.41;;;23.36
51561;BMP280;37654;51.262;17.058;2023-06-22T21:26:32;99303.31;;;23.35
51561;BMP280;37654;51.262;17.058;2023-06-22T21:28:58;99303.31;;;23.35
51561;BMP280;37654;51.262;17.058;2023-06-22T21:31:23;99305.47;;;23.30
51561;BMP280;37654;51.262;17.058;2023-06-22T21:33:49;99303.19;;;23.26
51561;BMP280;37654;51.262;17.058;2023-06-22T21:36:14;99298.75;;;23.26
51561;BMP280;37654;51.262;17.058;2023-06-22T21:38:40;99285.53;;;23.26
51561;BMP280;37654;51.262;17.058;2023-06-22T21:41:05;99296.47;;;23.22
51561;BMP280;37654;51.262;17.058;2023-06-22T21:43:31;99290.50;;;23.20
51561;BMP280;37654;51.262;17.058;2023-06-22T21:45:57;99278.38;;;23.17
51561;BMP280;37654;51.262;17.058;2023-06-22T21:48:23;99272.47;;;23.14
51561;BMP280;37654;51.262;17.058;2023-06-22T21:50:48;99269.47;;;23.18
51561;BMP280;37654;51.262;17.058;2023-06-22T21:53:14;99258.44;;;23.13
51561;BMP280;37654;51.262;17.058;2023-06-22T21:55:39;99259.88;;;23.17
51561;BMP280;37654;51.262;17.058;2023-06-22T21:58:05;99253.25;;;23.12
51561;BMP280;37654;51.262;17.058;2023-06-22T22:00:31;99234.66;;;23.13
51561;BMP280;37654;51.262;17.058;2023-06-22T22:02:56;99214.41;;;23.03
51561;BMP280;37654;51.262;17.058;2023-06-22T22:05:22;99205.41;;;22.95
51561;BMP280;37654;51.262;17.058;2023-06-22T22:07:48;99201.22;;;22.92
51561;BMP280;37654;51.262;17.058;2023-06-22T22:10:13;99185.00;;;22.97
51561;BMP280;37654;51.262;17.058;2023-06-22T22:12:39;99175.41;;;22.96
51561;BMP280;37654;51.262;17.058;2023-06-22T22:15:05;99176.94;;;22.98
51561;BMP280;37654;51.262;17.058;2023-06-22T22:17:31;99177.06;;;22.97
51561;BMP280;37654;51.262;17.058;2023-06-22T22:19:56;99181.88;;;23.03
51561;BMP280;37654;51.262;17.058;2023-06-22T22:22:22;99190.88;;;23.00
51561;BMP280;37654;51.262;17.058;2023-06-22T22:24:48;99189.81;;;23.03
51561;BMP280;37654;51.262;17.058;2023-06-22T22:27:13;99175.03;;;23.00
51561;BMP280;37654;51.262;17.058;2023-06-22T22:29:39;99175.88;;;23.01
51561;BMP280;37654;51.262;17.058;2023-06-22T22:32:05;99176.59;;;23.03
51561;BMP280;37654;51.262;17.058;2023-06-22T22:34:30;99188.38;;;22.99
51561;BMP280;37654;51.262;17.058;2023-06-22T22:36:56;99194.13;;;22.93
51561;BMP280;37654;51.262;17.058;2023-06-22T22:39:33;99202.19;;;22.91
51561;BMP280;37654;51.262;17.058;2023-06-22T22:42:00;99202.88;;;22.82
51561;BMP280;37654;51.262;17.058;2023-06-22T22:44:26;99207.81;;;22.76
51561;BMP280;37654;51.262;17.058;2023-06-22T22:46:52;99190.72;;;22.69
51561;BMP280;37654;51.262;17.058;2023-06-22T22:49:17;99177.31;;;22.61
51561;BMP280;37654;51.262;17.058;2023-06-22T22:51:43;99174.66;;;22.50
51561;BMP280;37654;51.262;17.058;2023-06-22T22:54:08;99177.75;;;22.45
51561;BMP280;37654;51.262;17.058;2023-06-22T22:56:34;99166.75;;;22.40
51561;BMP280;37654;51.262;17.058;2023-06-22T22:59:00;99177.66;;;22.35
51561;BMP280;37654;51.262;17.058;2023-06-22T23:01:26;99167.22;;;22.34
51561;BMP280;37654;51.262;17.058;2023-06-22T23:03:51;99162.91;;;22.33
51561;BMP280;37654;51.262;17.058;2023-06-22T23:06:17;99161.22;;;22.32
51561;BMP280;37654;51.262;17.058;2023-06-22T23:08:43;99176.56;;;22.27
51561;BMP280;37654;51.262;17.058;2023-06-22T23:11:08;99167.44;;;22.31
51561;BMP280;37654;51.262;17.058;2023-06-22T23:13:34;99162.06;;;22.22
51561;BMP280;37654;51.262;17.058;2023-06-22T23:16:00;99147.28;;;22.19
51561;BMP280;37654;51.262;17.058;2023-06-22T23:18:27;99155.56;;;22.15
51561;BMP280;37654;51.262;17.058;2023-06-22T23:20:56;99154.72;;;22.14
51561;BMP280;37654;51.262;17.058;2023-06-22T23:23:22;99147.44;;;22.18
51561;BMP280;37654;51.262;17.058;2023-06-22T23:25:48;99145.63;;;22.18
51561;BMP280;37654;51.262;17.058;2023-06-22T23:28:14;99136.03;;;22.17
51561;BMP280;37654;51.262;17.058;2023-06-22T23:30:39;99134.34;;;22.16
51561;BMP280;37654;51.262;17.058;2023-06-22T23:33:05;99125.22;;;22.09
51561;BMP280;37654;51.262;17.058;2023-06-22T23:35:30;99129.56;;;22.10
51561;BMP280;37654;51.262;17.058;2023-06-22T23:37:56;99119.25;;;22.07
51561;BMP280;37654;51.262;17.058;2023-06-22T23:40:21;99114.69;;;22.09
51561;BMP280;37654;51.262;17.058;2023-06-22T23:42:48;99115.53;;;22.10
51561;BMP280;37654;51.262;17.058;2023-06-22T23:45:15;99109.75;;;22.05
51561;BMP280;37654;51.262;17.058;2023-06-22T23:47:43;99113.00;;;22.08
51561;BMP280;37654;51.262;17.058;2023-06-22T23:50:09;99105.09;;;22.08
51561;BMP280;37654;51.262;17.058;2023-06-22T23:52:35;99116.59;;;22.07
51561;BMP280;37654;51.262;17.058;2023-06-22T23:55:01;99118.06;;;22.11
51561;BMP280;37654;51.262;17.058;2023-06-22T23:57:27;99119.25;;;22.07
51561;BMP280;37654;51.262;17.058;2023-06-22T23:59:53;99107.88;;;22.07
